Southington, CT (06489)

1:27 PM EST on February 20, 2017 (GMT -0500)
Hart St | | Change Station

Elev 256 ft 41.61 °N, 72.88 °W | Updated 12 seconds ago

Clear
Clear
47.7 °F
Feels Like 47 °F
N
3.6
Wind Variable Wind from NNE
Gusts 4.9 mph

Today
High -- | Low -- °F
--% Chance of Precip.
Yesterday
High -- | Low -- °F
Precip. -- in
Pressure 30.16 in
Visibility 10.0 miles
Clouds Clear
Windchill 47 °F
Dew Point 17 °F
Humidity 29%
Rainfall 0.00 in
Snow Depth Not available.
6:39 AM 5:31 PM
Waning Crescent, 32% visible
METAR KMMK 201753Z AUTO VRB06G15KT 10SM CLR 09/M08 A3015 RMK AO2 SLP211 T00941083 10094 21028 58004 TSNO
Pressure 30.16 in
Visibility 10.0 miles
Clouds Clear
Windchill 47 °F
Dew Point 17 °F
Humidity 29%
Rainfall 0.00 in
Snow Depth Not available.
6:39 AM 5:31 PM
Waning Crescent, 32% visible
METAR KMMK 201753Z AUTO VRB06G15KT 10SM CLR 09/M08 A3015 RMK AO2 SLP211 T00941083 10094 21028 58004 TSNO

Get Your Daily Forecast Email!

Thanks for signing up!

Be on the lookout for a verification email in your inbox.

You'll start receiving the daily forecast at 8 AM.

×

10-Day Weather Forecast

Almanac

Astronomy

Feb. 20, 2017 Rise Set
Actual Time
Civil Twilight
Nautical Twilight
Astronomical Twilight
Moon
Length of Visible Light
Length of Day
Tomorrow will be .
, % of the Moon is Illuminated

Today's Extremes

State Highs State Lows

Community

WunderPhotos

Upload Photos

1,962,540 photos uploaded!

WunderBlog® & News

Nearby

Air Quality

  Air Quality AQ Index Pollutant
Not available.

Snow Depth

Station Depth Elevation

Earthquake Activity

City Distance Mag. Time & Date
Minimum magnitude displayed is 2.5.

Coastal Water Temperatures

Place Temperature

Stations

Nearby Weather Stations

Station Location Temp. Windchill Dew Point Humidity Wind Precip. Elev Updated Type
                   

Watches & Warnings

There are currently no watches in effect.